LFOK 210400Z AUTO 36008KT 6000 FEW008 00/00 Q1035 TEMPO 3000 BR OVC003

ElémentsDécodage
LFOK Station météo située sur l'aérodrome de CHALONS Vatry
210400Z émis le 21 du mois à 04h00 UTC
AUTO Bulletin édité par un automate
36008KT vent du 360°, 08 noeuds
6000 visibilité horizontale de 6000 mètres
FEW008 nuages rares (1/8 à 2/8) à 800 pieds
00/00 température 00°C, point de rosée 00°C
 soit une humidité relative de 100%
Q1035 la pression au niveau de la mer (QNH) est de 1035 hPa
TEMPO fluctuation temporaire prévue
3000 visibilité horizontale de 3000 mètres
BR brume
OVC003 couverture nuageuse totale (8/8) à 300 pieds